Time;durP1;ratioP1;P1;durP2;ratioP2;P2;SDS_P1;SDS_P2;PMS_P1;PMS_P2;Temp;Humidity;BMP_temperature;BMP_pressure;BME280_temperature;BME280_humidity;BME280_pressure;Samples;Min_cycle;Max_cycle;Signal;HPM_P1;HPM_P2
2022/01/12 00:02:18;;;;;;;15.10;13.48;;;;;;;1.32;81.58;96985.22;4318146;32;20201;-59
2022/01/12 00:04:45;;;;;;;15.88;14.18;;;;;;;1.48;81.49;96976.22;4351454;32;20184;-59
2022/01/12 00:07:12;;;;;;;14.80;13.20;;;;;;;1.82;80.21;96977.97;4347051;32;20199;-59
2022/01/12 00:09:38;;;;;;;15.37;13.40;;;;;;;2.01;79.23;96982.47;4331038;32;20336;-59
2022/01/12 00:12:04;;;;;;;18.43;14.03;;;;;;;1.96;78.98;96979.62;4338552;32;20311;-59
2022/01/12 00:14:31;;;;;;;15.90;14.20;;;;;;;1.87;79.33;96988.66;4359418;32;20180;-60
2022/01/12 00:16:59;;;;;;;17.63;14.50;;;;;;;1.80;79.83;96985.22;4364006;32;20283;-59
2022/01/12 00:19:28;;;;;;;17.02;14.90;;;;;;;1.48;80.22;96989.31;4365188;32;20302;-59
2022/01/12 00:21:55;;;;;;;15.63;14.00;;;;;;;1.54;80.57;97001.62;4354715;32;20197;-59
2022/01/12 00:24:22;;;;;;;16.47;13.90;;;;;;;1.55;80.79;97003.22;4337721;32;20294;-59
2022/01/12 00:35:01;;;;;;;15.43;13.30;;;;;;;1.63;80.10;97002.25;4347561;32;20299;-60
2022/01/12 00:37:29;;;;;;;18.60;15.33;;;;;;;1.74;79.66;97009.53;4347023;32;20289;-59
2022/01/12 00:39:58;;;;;;;19.03;15.50;;;;;;;1.69;79.87;97004.06;4340846;32;20215;-60
2022/01/12 00:42:27;;;;;;;17.03;15.10;;;;;;;1.60;80.38;97002.66;4349753;32;20265;-60
2022/01/12 00:44:54;;;;;;;18.15;15.13;;;;;;;1.51;80.79;97002.00;4317352;32;20269;-60
2022/01/12 00:47:20;;;;;;;18.07;15.07;;;;;;;1.49;80.87;97000.56;4306243;32;20327;-58
2022/01/12 00:49:45;;;;;;;17.67;14.50;;;;;;;1.70;80.69;96995.22;4290403;32;20341;-59
2022/01/12 00:52:11;;;;;;;19.80;15.57;;;;;;;1.78;80.15;96992.44;4343370;32;20201;-59
2022/01/12 00:54:38;;;;;;;18.30;15.33;;;;;;;1.58;80.19;96999.41;4338293;32;20227;-59
2022/01/12 00:57:06;;;;;;;19.73;15.75;;;;;;;1.71;80.23;97002.06;4308632;32;20208;-59
2022/01/12 00:59:37;;;;;;;19.27;16.43;;;;;;;1.65;80.27;96998.47;4356378;32;20182;-59
2022/01/12 01:02:04;;;;;;;18.97;15.20;;;;;;;1.46;81.00;97000.97;4337951;32;20270;-60
2022/01/12 01:04:32;;;;;;;17.65;15.15;;;;;;;1.64;80.37;97001.25;4329429;32;20332;-61
2022/01/12 01:07:00;;;;;;;17.30;15.07;;;;;;;1.79;79.98;97004.53;4349970;32;20177;-59
2022/01/12 01:09:28;;;;;;;19.10;15.87;;;;;;;1.73;79.97;97003.50;4343765;32;20317;-59
2022/01/12 01:11:54;;;;;;;19.67;15.23;;;;;;;1.86;79.67;96999.34;4342401;32;20295;-59
2022/01/12 01:14:34;;;;;;;18.10;15.63;;;;;;;1.86;79.35;96996.72;4351212;32;20269;-59
2022/01/12 01:25:31;;;;;;;18.80;16.17;;;;;;;1.80;79.64;97016.59;4352863;32;20234;-59
2022/01/12 01:27:56;;;;;;;20.20;15.60;;;;;;;1.65;80.26;97013.34;4350979;32;20269;-59
2022/01/12 01:30:22;;;;;;;19.30;16.83;;;;;;;1.87;79.49;97006.97;4352159;32;20219;-59
2022/01/12 01:32:48;;;;;;;20.27;15.70;;;;;;;2.03;78.86;96996.16;4336038;32;20213;-59
2022/01/12 01:35:15;;;;;;;18.77;16.10;;;;;;;1.97;78.81;96994.31;4337114;32;20188;-59
2022/01/12 01:37:45;;;;;;;18.17;15.67;;;;;;;1.91;79.33;96992.47;4329955;32;20277;-59
2022/01/12 01:40:13;;;;;;;20.30;17.33;;;;;;;1.95;78.77;96990.28;4331214;32;20287;-59
2022/01/12 01:42:55;;;;;;;18.10;16.20;;;;;;;1.64;79.86;96989.00;4325597;32;20292;-59
2022/01/12 01:53:40;;;;;;;19.13;16.70;;;;;;;1.61;80.17;96983.34;4325143;32;20231;-59
2022/01/12 01:56:07;;;;;;;17.73;15.60;;;;;;;1.40;81.20;96978.22;4331710;32;20321;-58
2022/01/12 01:58:34;;;;;;;19.73;15.10;;;;;;;1.35;81.69;96978.81;4319743;32;20198;-59
2022/01/12 02:00:59;;;;;;;21.80;16.40;;;;;;;0.96;82.68;96976.78;4335619;32;20196;-62
2022/01/12 02:03:27;;;;;;;20.13;16.13;;;;;;;1.25;82.05;96980.94;4339862;32;20182;-59
2022/01/12 02:06:04;;;;;;;20.67;15.55;;;;;;;1.59;81.08;96980.13;4349030;32;20181;-60
2022/01/12 02:08:31;;;;;;;19.55;16.42;;;;;;;1.52;80.29;96976.66;4333467;32;20187;-60
2022/01/12 02:11:00;;;;;;;18.92;15.88;;;;;;;1.43;81.11;96977.84;4326542;32;20181;-59
2022/01/12 02:13:27;;;;;;;20.52;16.35;;;;;;;1.38;81.34;96987.06;4322171;32;20210;-58
2022/01/12 02:15:53;;;;;;;19.92;16.15;;;;;;;1.67;80.03;96985.16;4340725;32;20181;-59
2022/01/12 02:18:36;;;;;;;19.87;16.83;;;;;;;1.58;79.76;96983.72;4339054;32;20174;-59
2022/01/12 02:40:26;;;;;;;22.25;16.80;;;;;;;1.27;80.87;97003.28;4356829;32;20184;-58
2022/01/12 02:53:46;;;;;;;18.75;16.12;;;;;;;1.17;81.30;97010.69;4362019;32;20211;-58
2022/01/12 02:56:28;;;;;;;20.87;17.63;;;;;;;1.07;82.45;97015.41;4337295;32;20252;-59
2022/01/12 02:58:59;;;;;;;21.73;17.75;;;;;;;1.15;82.03;97022.31;4360108;32;20181;-59
2022/01/12 03:03:55;;;;;;;23.02;18.17;;;;;;;0.40;85.06;97022.94;4357274;32;20185;-60
2022/01/12 03:06:34;;;;;;;20.88;17.75;;;;;;;0.40;85.28;97028.16;4336511;32;20276;-59
2022/01/12 03:08:59;;;;;;;22.20;17.40;;;;;;;0.63;84.61;97028.75;4316987;32;20191;-59
2022/01/12 03:11:27;;;;;;;23.90;18.63;;;;;;;0.55;84.46;97021.87;4348670;32;20268;-59
2022/01/12 03:13:53;;;;;;;22.58;18.95;;;;;;;0.73;84.56;97026.63;4312147;32;20286;-59
2022/01/12 03:16:22;;;;;;;19.47;17.10;;;;;;;0.65;84.31;97021.53;4310436;32;20200;-60
2022/01/12 03:18:51;;;;;;;23.98;18.42;;;;;;;0.76;84.32;97028.06;4346572;32;20220;-59
2022/01/12 03:21:18;;;;;;;20.33;17.60;;;;;;;0.62;83.92;97021.94;4355733;32;20240;-59
2022/01/12 03:23:45;;;;;;;25.15;19.10;;;;;;;0.70;84.16;97027.00;4331901;32;20174;-60
2022/01/12 03:26:11;;;;;;;22.33;18.05;;;;;;;0.56;84.55;97033.12;4343791;32;20263;-59
2022/01/12 03:28:39;;;;;;;24.27;19.60;;;;;;;0.91;83.92;97026.16;4331139;32;20224;-59
2022/01/12 03:38:59;;;;;;;28.65;19.75;;;;;;;0.77;82.85;97040.12;4328248;32;20224;-59
2022/01/12 03:41:27;;;;;;;24.50;19.52;;;;;;;0.93;83.13;97039.84;4332510;32;20206;-59
2022/01/12 03:43:56;;;;;;;24.77;19.00;;;;;;;1.05;82.95;97046.16;4313786;32;20323;-59
2022/01/12 03:46:27;;;;;;;24.27;19.12;;;;;;;0.92;83.44;97053.91;4335416;32;20221;-59
2022/01/12 03:48:53;;;;;;;25.17;19.20;;;;;;;1.17;82.51;97049.06;4341861;32;20193;-59
2022/01/12 03:51:20;;;;;;;23.27;19.10;;;;;;;1.12;82.62;97044.41;4353332;32;20189;-60
2022/01/12 03:53:46;;;;;;;23.45;18.80;;;;;;;1.31;81.98;97051.56;4332846;32;20207;-59
2022/01/12 03:56:12;;;;;;;25.67;19.83;;;;;;;1.04;82.35;97052.37;4304732;32;20202;-58
2022/01/12 03:58:37;;;;;;;24.67;19.10;;;;;;;0.75;83.39;97053.38;4325576;32;20189;-59
2022/01/12 04:01:07;;;;;;;28.97;21.00;;;;;;;0.65;84.12;97060.72;4340817;32;20205;-59
2022/01/12 04:03:43;;;;;;;25.05;20.23;;;;;;;0.51;85.34;97062.41;4343424;32;20186;-59
2022/01/12 04:08:52;;;;;;;29.55;20.92;;;;;;;0.37;85.68;97054.62;4363426;32;20202;-58
2022/01/12 04:11:20;;;;;;;26.62;20.12;;;;;;;0.13;86.50;97058.41;4309719;32;20224;-59
2022/01/12 04:13:49;;;;;;;26.92;20.65;;;;;;;0.29;86.25;97058.16;4344038;32;20185;-59
2022/01/12 04:16:16;;;;;;;30.33;20.20;;;;;;;0.15;86.32;97066.84;4344500;32;20220;-60
2022/01/12 04:18:42;;;;;;;25.37;19.27;;;;;;;0.27;86.13;97065.38;4321429;32;20196;-59
2022/01/12 04:21:10;;;;;;;27.08;19.87;;;;;;;0.28;86.20;97064.38;4333021;32;20299;-59
2022/01/12 04:23:37;;;;;;;27.37;20.15;;;;;;;0.24;86.12;97065.72;4326916;32;20193;-59
2022/01/12 04:26:11;;;;;;;27.77;20.65;;;;;;;0.22;86.24;97065.91;4359565;32;20256;-59
2022/01/12 04:28:41;;;;;;;30.83;20.58;;;;;;;0.19;86.22;97052.47;4332010;32;20236;-59
2022/01/12 04:31:08;;;;;;;28.75;19.70;;;;;;;0.27;86.60;97066.19;4336971;32;20232;-59
2022/01/12 04:33:37;;;;;;;28.00;19.37;;;;;;;0.59;85.44;97054.47;4329483;32;20206;-59
2022/01/12 04:36:07;;;;;;;29.98;20.67;;;;;;;0.41;85.30;97055.88;4339214;32;20228;-59
2022/01/12 04:38:35;;;;;;;25.05;19.70;;;;;;;0.46;85.16;97056.12;4323049;32;20236;-59
2022/01/12 04:41:11;;;;;;;26.65;18.95;;;;;;;0.21;85.71;97066.09;4350348;32;20193;-59
2022/01/12 04:43:40;;;;;;;28.92;20.10;;;;;;;0.72;84.73;97064.19;4354961;32;20251;-59
2022/01/12 04:47:03;;;;;;;27.20;19.12;;;;;;;0.86;83.71;97065.91;4356182;32;20242;-59
2022/01/12 04:51:46;;;;;;;25.27;19.17;;;;;;;0.68;83.87;97063.75;4361142;32;20244;-59
2022/01/12 04:54:12;;;;;;;25.58;19.70;;;;;;;0.57;84.28;97059.06;4346170;32;20254;-59
2022/01/12 04:56:38;;;;;;;29.08;19.98;;;;;;;0.58;83.68;97062.47;4367784;32;20251;-60
2022/01/12 04:59:04;;;;;;;29.60;20.57;;;;;;;0.41;84.61;97059.31;4355924;32;20197;-60
2022/01/12 05:01:36;;;;;;;26.40;19.33;;;;;;;0.59;83.65;97061.47;4325223;32;20189;-60
2022/01/12 05:06:56;;;;;;;29.27;19.15;;;;;;;0.29;84.13;97063.38;4346717;32;20216;-59
2022/01/12 05:09:49;;;;;;;26.23;19.48;;;;;;;0.54;83.71;97069.88;4341763;32;20339;-59
2022/01/12 05:15:07;;;;;;;27.55;19.98;;;;;;;0.79;82.44;97069.47;4351487;32;20234;-58
2022/01/12 05:17:34;;;;;;;26.95;19.75;;;;;;;0.88;81.71;97079.59;4319842;32;20323;-59
2022/01/12 05:20:01;;;;;;;28.30;18.83;;;;;;;0.44;83.31;97087.63;4340511;32;20188;-59
2022/01/12 05:22:27;;;;;;;27.35;19.37;;;;;;;0.39;84.01;97086.59;4326274;32;20193;-60
2022/01/12 05:24:54;;;;;;;24.02;17.85;;;;;;;0.42;83.88;97094.03;4351563;32;20185;-60
2022/01/12 05:27:23;;;;;;;25.77;19.12;;;;;;;0.34;83.80;97097.56;4352795;32;20196;-59
2022/01/12 05:29:48;;;;;;;28.05;20.23;;;;;;;0.33;83.95;97096.75;4354833;32;20188;-59
2022/01/12 05:32:15;;;;;;;28.00;19.43;;;;;;;0.43;84.00;97093.84;4358531;32;20248;-59
2022/01/12 05:34:43;;;;;;;25.85;18.92;;;;;;;0.67;83.23;97100.50;4326440;32;20215;-59
2022/01/12 05:37:09;;;;;;;26.12;18.85;;;;;;;0.55;83.31;97112.44;4360634;32;20240;-59
2022/01/12 05:39:35;;;;;;;25.20;18.55;;;;;;;0.55;83.05;97118.47;4323754;32;20189;-59
2022/01/12 05:42:02;;;;;;;28.33;19.80;;;;;;;0.57;83.28;97113.06;4356752;32;20207;-59
2022/01/12 05:44:29;;;;;;;28.45;20.12;;;;;;;0.31;84.64;97113.59;4337452;32;20215;-59
2022/01/12 05:46:55;;;;;;;28.90;20.12;;;;;;;0.29;85.03;97112.97;4320897;32;20209;-59
2022/01/12 05:49:36;;;;;;;26.23;19.87;;;;;;;0.46;84.95;97122.19;4345937;32;20252;-59
2022/01/12 05:52:03;;;;;;;26.83;18.77;;;;;;;0.64;84.01;97113.91;4341306;32;20216;-60
2022/01/12 05:54:29;;;;;;;25.25;19.15;;;;;;;0.67;83.56;97124.81;4349914;32;20205;-60
2022/01/12 05:57:00;;;;;;;25.27;19.70;;;;;;;0.96;81.90;97123.06;4334218;32;20400;-60
2022/01/12 05:59:26;;;;;;;25.62;19.15;;;;;;;0.72;82.06;97126.06;4329233;32;20239;-59
2022/01/12 06:01:53;;;;;;;23.50;18.67;;;;;;;0.96;81.67;97123.06;4338554;32;20286;-58
2022/01/12 06:04:20;;;;;;;27.20;19.60;;;;;;;1.04;81.24;97128.16;4341538;32;20238;-59
2022/01/12 06:06:47;;;;;;;27.58;19.42;;;;;;;0.60;82.20;97129.19;4363432;32;20252;-60
2022/01/12 06:09:12;;;;;;;25.27;18.40;;;;;;;0.19;84.60;97133.34;4355252;32;20188;-59
2022/01/12 06:11:38;;;;;;;26.90;18.97;;;;;;;0.33;84.91;97138.53;4355569;32;20176;-59
2022/01/12 06:14:04;;;;;;;26.37;19.17;;;;;;;0.62;83.63;97136.81;4362339;32;20184;-60
2022/01/12 06:16:30;;;;;;;26.83;19.62;;;;;;;0.29;83.75;97136.44;4359889;32;20189;-59
2022/01/12 06:18:58;;;;;;;28.07;19.77;;;;;;;0.36;85.06;97132.12;4340707;32;20242;-59
2022/01/12 06:21:23;;;;;;;25.62;18.17;;;;;;;0.44;84.61;97137.22;4361739;32;20189;-59
2022/01/12 06:23:49;;;;;;;25.70;18.70;;;;;;;0.51;83.94;97132.06;4326116;32;20215;-59
2022/01/12 06:26:16;;;;;;;28.27;19.40;;;;;;;0.34;84.78;97128.88;4328150;32;20208;-59
2022/01/12 06:28:54;;;;;;;26.60;19.95;;;;;;;0.54;84.38;97132.53;4335246;32;20193;-59
2022/01/12 06:31:26;;;;;;;24.73;18.08;;;;;;;0.75;83.19;97147.41;4362343;32;20197;-59
2022/01/12 06:33:52;;;;;;;27.50;18.40;;;;;;;0.92;82.36;97151.37;4351282;32;20283;-59
2022/01/12 06:36:23;;;;;;;26.23;19.00;;;;;;;0.82;82.39;97153.50;4335572;32;20236;-60
2022/01/12 06:38:50;;;;;;;29.77;19.98;;;;;;;0.86;82.48;97159.13;4355440;32;20192;-60
2022/01/12 06:41:18;;;;;;;24.08;18.75;;;;;;;1.09;82.14;97151.09;4345719;32;20189;-59
2022/01/12 06:43:46;;;;;;;22.10;16.73;;;;;;;1.13;81.69;97154.97;4339276;32;20193;-60
2022/01/12 06:46:21;;;;;;;24.92;18.10;;;;;;;0.78;82.68;97160.09;4326659;32;20225;-59
2022/01/12 06:48:49;;;;;;;22.00;18.20;;;;;;;0.82;82.30;97176.19;4342980;32;20236;-60
2022/01/12 06:51:16;;;;;;;24.55;17.02;;;;;;;0.96;82.00;97183.16;4322424;32;20189;-59
2022/01/12 06:53:44;;;;;;;22.90;16.95;;;;;;;1.08;80.48;97181.66;4315294;32;20273;-59
2022/01/12 06:56:10;;;;;;;20.85;16.73;;;;;;;0.88;80.32;97185.88;4339191;32;20185;-59
2022/01/12 06:58:37;;;;;;;29.63;15.45;;;;;;;0.84;80.79;97198.50;4357256;32;20189;-54
2022/01/12 07:01:07;;;;;;;21.97;17.50;;;;;;;4.57;100.00;97189.59;4302149;32;20293;-54
2022/01/12 07:03:34;;;;;;;17.47;14.77;;;;;;;6.13;100.00;97189.69;4362000;32;20288;-54
2022/01/12 07:05:59;;;;;;;15.33;13.57;;;;;;;7.50;77.42;97178.34;4349060;32;20391;-52
2022/01/12 07:08:24;;;;;;;16.03;12.77;;;;;;;8.78;69.32;97177.44;4319431;32;20327;-52
2022/01/12 07:10:51;;;;;;;16.13;14.50;;;;;;;9.54;60.75;97183.31;4324713;32;20213;-53
2022/01/12 07:13:16;;;;;;;15.53;13.93;;;;;;;10.13;55.78;97181.84;4351781;32;20237;-54
2022/01/12 07:15:43;;;;;;;15.57;13.90;;;;;;;10.11;54.81;97181.25;4315766;32;20285;-53
2022/01/12 07:18:08;;;;;;;15.07;13.57;;;;;;;10.12;53.45;97187.38;4330090;32;20268;-55
2022/01/12 07:20:36;;;;;;;15.70;14.10;;;;;;;10.39;52.31;97198.94;4355930;32;20357;-54
2022/01/12 07:23:03;;;;;;;14.97;13.47;;;;;;;10.16;50.42;97205.22;4330527;32;20212;-55
2022/01/12 07:25:29;;;;;;;14.33;12.83;;;;;;;10.27;50.62;97206.97;4359625;32;20214;-55
2022/01/12 07:27:54;;;;;;;13.93;12.70;;;;;;;10.19;49.40;97210.03;4331076;32;20190;-53
2022/01/12 07:30:24;;;;;;;14.63;13.13;;;;;;;10.16;49.32;97220.31;4367908;32;20239;-52
2022/01/12 07:32:51;;;;;;;16.67;15.10;;;;;;;10.35;49.58;97226.19;4324833;32;20235;-62
2022/01/12 07:35:17;;;;;;;15.70;14.23;;;;;;;8.65;48.65;97222.72;4355395;32;20193;-62
2022/01/12 07:37:43;;;;;;;16.80;15.00;;;;;;;7.58;51.93;97222.91;4331650;32;20192;-60
2022/01/12 07:40:08;;;;;;;16.77;15.07;;;;;;;5.27;58.44;97237.75;4343118;32;20401;-65
2022/01/12 07:42:35;;;;;;;16.53;14.93;;;;;;;4.57;61.23;97247.41;4334697;32;20185;-61
2022/01/12 07:45:03;;;;;;;14.90;9.60;;;;;;;3.79;64.12;97246.50;4345355;32;20217;-53
2022/01/12 07:47:30;;;;;;;16.17;14.47;;;;;;;7.87;81.80;97234.47;4350155;32;20359;-63
2022/01/12 07:49:58;;;;;;;15.47;13.67;;;;;;;7.33;57.21;97230.19;4321006;32;20277;-63
2022/01/12 07:52:48;;;;;;;14.57;12.97;;;;;;;6.27;57.67;97249.13;4325455;32;20275;-62
2022/01/12 07:55:14;;;;;;;14.80;13.30;;;;;;;4.91;60.72;97259.41;4339147;32;20323;-63
2022/01/12 07:57:42;;;;;;;14.27;12.80;;;;;;;4.07;64.20;97262.88;4352329;32;20297;-63
2022/01/12 08:00:09;;;;;;;18.27;14.70;;;;;;;3.69;65.91;97273.19;4353756;32;20220;-62
2022/01/12 08:02:36;;;;;;;16.63;13.83;;;;;;;3.43;67.33;97276.56;4320611;32;20282;-65
2022/01/12 08:05:04;;;;;;;14.50;12.90;;;;;;;3.32;68.31;97269.31;4343407;32;20281;-65
2022/01/12 08:07:35;;;;;;;15.13;13.67;;;;;;;2.93;69.82;97269.16;4349451;32;20284;-60
2022/01/12 08:10:04;;;;;;;15.10;13.30;;;;;;;2.50;71.50;97269.38;4319184;32;20321;-61
2022/01/12 08:12:30;;;;;;;14.10;12.63;;;;;;;2.03;73.02;97272.75;4312765;32;20281;-62
2022/01/12 08:14:59;;;;;;;17.00;13.90;;;;;;;2.08;73.32;97269.56;4334955;32;20301;-61
2022/01/12 08:17:24;;;;;;;14.93;13.43;;;;;;;1.98;73.30;97269.88;4303890;32;20394;-61
2022/01/12 08:19:54;;;;;;;17.97;13.90;;;;;;;1.81;73.84;97279.03;4324174;32;20298;-61
2022/01/12 08:22:20;;;;;;;14.43;12.40;;;;;;;2.05;73.91;97278.59;4316853;32;20212;-61
2022/01/12 08:24:45;;;;;;;12.77;11.53;;;;;;;2.03;73.61;97283.22;4304449;32;20290;-60
2022/01/12 08:27:13;;;;;;;12.90;10.97;;;;;;;2.04;74.01;97285.66;4330078;32;20258;-61
2022/01/12 08:29:40;;;;;;;15.40;12.53;;;;;;;2.26;72.51;97288.22;4309632;32;20265;-63
2022/01/12 08:32:07;;;;;;;22.50;13.27;;;;;;;1.77;73.12;97296.91;4321829;32;20277;-62
2022/01/12 08:34:35;;;;;;;14.33;12.53;;;;;;;2.19;72.80;97293.41;4327939;32;20270;-61
2022/01/12 08:37:02;;;;;;;18.63;13.77;;;;;;;2.19;72.94;97287.34;4323722;32;20290;-59
2022/01/12 08:39:30;;;;;;;14.57;12.37;;;;;;;1.99;72.93;97292.44;4333124;32;20297;-62
2022/01/12 08:41:57;;;;;;;17.87;13.23;;;;;;;1.95;73.65;97288.59;4317001;32;20286;-62
2022/01/12 08:44:23;;;;;;;14.90;13.23;;;;;;;2.28;72.90;97287.03;4317619;32;20331;-64
2022/01/12 08:46:48;;;;;;;15.97;12.97;;;;;;;2.26;72.36;97289.03;4313701;32;20301;-60
2022/01/12 08:49:14;;;;;;;14.43;12.93;;;;;;;2.04;73.17;97290.88;4331944;32;20212;-62
2022/01/12 08:51:41;;;;;;;17.50;13.97;;;;;;;1.61;74.11;97300.59;4276702;32;20252;-60
2022/01/12 08:54:06;;;;;;;18.30;13.80;;;;;;;1.04;76.46;97303.19;4328448;32;20201;-61
2022/01/12 08:56:40;;;;;;;14.80;11.93;;;;;;;1.48;75.99;97304.88;4344982;32;20277;-54
2022/01/12 08:59:05;;;;;;;15.23;11.23;;;;;;;3.20;86.86;97289.22;4337244;32;20239;-58
2022/01/12 09:01:31;;;;;;;9.97;8.77;;;;;;;6.39;84.09;97294.84;4323243;32;20369;-57
2022/01/12 09:03:56;;;;;;;10.13;9.03;;;;;;;8.25;75.46;97283.44;4324963;32;20268;-57
2022/01/12 09:06:22;;;;;;;13.40;11.97;;;;;;;10.17;63.39;97278.44;4332425;32;20274;-57
2022/01/12 09:08:49;;;;;;;12.13;9.27;;;;;;;9.72;48.24;97282.97;4307139;32;20240;-57
2022/01/12 09:11:18;;;;;;;10.27;9.27;;;;;;;10.85;56.56;97277.28;4332646;32;20193;-58
2022/01/12 09:13:43;;;;;;;12.07;11.03;;;;;;;12.19;51.31;97289.06;4282630;32;20234;-59
2022/01/12 09:16:10;;;;;;;12.77;11.67;;;;;;;11.96;44.34;97298.97;4358595;32;20197;-61
2022/01/12 09:18:39;;;;;;;14.17;12.77;;;;;;;9.92;46.17;97307.19;4342248;32;20201;-60
2022/01/12 09:21:07;;;;;;;13.57;11.27;;;;;;;7.92;49.72;97310.37;4300377;32;20236;-63
2022/01/12 09:23:33;;;;;;;12.80;11.70;;;;;;;5.43;56.64;97310.94;4316864;32;20211;-60
2022/01/12 09:25:59;;;;;;;12.37;11.20;;;;;;;5.11;59.20;97317.16;4306394;32;20197;-58
2022/01/12 09:28:25;;;;;;;12.20;11.00;;;;;;;4.91;60.21;97308.56;4342536;32;20334;-58
2022/01/12 09:30:54;;;;;;;12.97;11.63;;;;;;;4.36;61.17;97308.91;4313242;32;20242;-59
2022/01/12 09:33:20;;;;;;;13.13;11.90;;;;;;;3.70;63.08;97305.47;4324217;32;20216;-59
2022/01/12 09:35:49;;;;;;;13.03;11.73;;;;;;;3.58;64.12;97307.06;4331800;32;20297;-60
2022/01/12 09:38:21;;;;;;;12.40;11.10;;;;;;;3.33;65.03;97307.59;4344653;32;20204;-59
2022/01/12 09:40:51;;;;;;;13.60;12.30;;;;;;;2.90;66.84;97319.38;4311897;32;20332;-58
2022/01/12 09:43:17;;;;;;;13.23;11.83;;;;;;;2.78;67.17;97313.88;4318465;32;20300;-59
2022/01/12 09:45:49;;;;;;;13.93;12.53;;;;;;;2.63;68.71;97305.34;4319429;32;20319;-59
2022/01/12 09:48:33;;;;;;;14.23;12.47;;;;;;;2.58;69.09;97311.16;4329744;32;20305;-59
2022/01/12 09:51:01;;;;;;;14.00;12.60;;;;;;;2.38;70.19;97303.19;4309917;32;20307;-58
2022/01/12 09:53:29;;;;;;;15.53;12.37;;;;;;;2.85;69.21;97313.91;4338074;32;20277;-58
2022/01/12 09:55:55;;;;;;;13.93;12.57;;;;;;;2.86;67.97;97315.53;4324528;32;20322;-60
2022/01/12 09:58:20;;;;;;;15.90;12.83;;;;;;;2.41;69.86;97304.63;4293740;32;20282;-60
2022/01/12 10:01:04;;;;;;;13.83;12.53;;;;;;;2.44;69.84;97309.47;4332545;32;20239;-60
2022/01/12 10:03:31;;;;;;;14.47;13.03;;;;;;;1.93;71.55;97317.56;4320699;32;20353;-59
2022/01/12 10:05:57;;;;;;;15.33;12.40;;;;;;;2.01;71.87;97304.34;4326304;32;20351;-61
2022/01/12 10:08:22;;;;;;;16.17;13.83;;;;;;;2.10;71.70;97304.19;4324765;32;20361;-61
2022/01/12 10:11:11;;;;;;;15.30;13.07;;;;;;;2.22;70.99;97294.81;4304297;32;20221;-63
2022/01/12 10:13:40;;;;;;;17.43;13.60;;;;;;;2.17;71.29;97294.59;4311725;32;20193;-59
2022/01/12 10:16:29;;;;;;;14.30;12.73;;;;;;;2.22;71.41;97289.59;4342016;32;20287;-60
2022/01/12 10:18:58;;;;;;;13.73;12.33;;;;;;;2.69;70.34;97294.91;4325429;32;20332;-61
2022/01/12 10:21:44;;;;;;;13.43;11.33;;;;;;;2.88;69.20;97295.19;4311207;32;20365;-62
2022/01/12 10:24:18;;;;;;;14.03;12.53;;;;;;;2.87;69.15;97296.19;4339899;32;20289;-59
2022/01/12 10:26:45;;;;;;;15.30;12.47;;;;;;;2.77;68.94;97296.53;4338000;32;20285;-59
2022/01/12 10:29:13;;;;;;;13.93;12.50;;;;;;;2.79;69.13;97296.34;4299823;32;20279;-60
2022/01/12 10:32:13;;;;;;;14.63;12.93;;;;;;;2.64;69.54;97286.81;4310726;32;20309;-59
2022/01/12 10:34:51;;;;;;;12.97;11.67;;;;;;;2.91;69.08;97284.31;4336486;32;20372;-61
2022/01/12 10:37:27;;;;;;;13.80;12.27;;;;;;;2.98;67.50;97272.81;4334806;32;20297;-60
2022/01/12 10:39:55;;;;;;;12.70;11.10;;;;;;;3.19;67.00;97269.25;4328393;32;20377;-60
2022/01/12 10:42:26;;;;;;;12.67;11.10;;;;;;;2.78;67.45;97281.63;4339852;32;20310;-59
2022/01/12 10:44:57;;;;;;;12.63;11.43;;;;;;;2.52;68.17;97288.34;4331663;32;20281;-59
2022/01/12 10:47:29;;;;;;;12.30;11.13;;;;;;;2.24;68.96;97283.16;4332115;32;20353;-59
2022/01/12 10:49:59;;;;;;;14.23;12.07;;;;;;;2.18;69.77;97283.09;4289525;32;20357;-59
2022/01/12 10:52:34;;;;;;;13.20;11.80;;;;;;;2.10;70.27;97275.41;4330056;32;20359;-60
2022/01/12 10:55:15;;;;;;;12.20;10.87;;;;;;;2.09;70.39;97279.81;4339169;32;20348;-59
2022/01/12 10:57:44;;;;;;;11.17;9.93;;;;;;;2.59;67.91;97289.19;4339014;32;20293;-60
2022/01/12 11:00:18;;;;;;;12.93;11.63;;;;;;;2.45;67.34;97284.09;4341657;32;20308;-58
2022/01/12 11:02:46;;;;;;;14.17;12.70;;;;;;;2.28;69.01;97284.41;4361087;32;20315;-58
2022/01/12 11:05:12;;;;;;;13.60;12.00;;;;;;;2.47;68.17;97285.53;4338008;32;20303;-59
2022/01/12 11:07:39;;;;;;;12.93;11.63;;;;;;;2.34;68.75;97288.03;4354237;32;20332;-58
2022/01/12 11:10:09;;;;;;;13.37;11.97;;;;;;;2.44;68.51;97285.91;4334742;32;20244;-58
2022/01/12 11:12:35;;;;;;;13.30;11.90;;;;;;;2.55;68.49;97274.06;4327579;32;20315;-58
2022/01/12 11:15:24;;;;;;;14.00;11.60;;;;;;;2.76;68.25;97268.72;4351485;32;20285;-57
2022/01/12 11:17:51;;;;;;;14.80;12.00;;;;;;;2.71;68.08;97281.56;4355263;32;20289;-57
2022/01/12 11:20:27;;;;;;;14.20;11.17;;;;;;;2.86;67.48;97286.69;4331664;32;20373;-58
2022/01/12 11:23:04;;;;;;;13.63;11.90;;;;;;;2.87;66.95;97275.22;4334617;32;22146;-58
2022/01/12 11:25:33;;;;;;;12.80;11.50;;;;;;;2.56;66.73;97279.09;4365444;32;20293;-57
2022/01/12 11:28:33;;;;;;;13.10;11.67;;;;;;;2.56;68.26;97284.34;4347307;32;20312;-58
2022/01/12 11:31:01;;;;;;;14.00;12.57;;;;;;;2.55;68.44;97276.66;4336658;32;20286;-58
2022/01/12 11:33:43;;;;;;;14.67;12.53;;;;;;;2.67;67.63;97283.00;4348907;32;20361;-59
2022/01/12 11:36:17;;;;;;;14.50;12.13;;;;;;;2.86;67.57;97268.34;4344478;32;20318;-58
2022/01/12 11:38:48;;;;;;;15.00;13.50;;;;;;;2.57;68.26;97280.72;4337262;32;20293;-58
2022/01/12 11:41:36;;;;;;;16.37;12.43;;;;;;;2.47;68.49;97276.84;4315556;32;20294;-58
2022/01/12 11:44:09;;;;;;;13.37;11.97;;;;;;;2.92;67.99;97278.03;4327067;32;20294;-59
2022/01/12 11:46:45;;;;;;;12.57;10.90;;;;;;;3.26;65.97;97262.22;4346240;32;20304;-58
2022/01/12 11:49:12;;;;;;;14.03;12.37;;;;;;;3.45;65.29;97258.81;4330171;32;20309;-58
2022/01/12 11:51:42;;;;;;;16.97;12.20;;;;;;;3.01;65.60;97253.28;4332840;32;20300;-58
2022/01/12 11:54:16;;;;;;;12.80;11.43;;;;;;;2.54;67.03;97259.34;4356175;32;20356;-59
2022/01/12 11:57:06;;;;;;;13.67;11.40;;;;;;;2.69;67.34;97247.75;4336022;32;20308;-58
2022/01/12 12:00:21;;;;;;;12.97;11.60;;;;;;;2.67;67.50;97246.31;4347948;32;20297;-57
2022/01/12 12:02:49;;;;;;;13.43;11.63;;;;;;;2.12;68.67;97249.84;4344208;32;20295;-58
2022/01/12 12:05:23;;;;;;;14.10;12.60;;;;;;;2.55;68.12;97248.66;4345030;32;20302;-57
2022/01/12 12:07:55;;;;;;;19.80;14.00;;;;;;;2.56;67.94;97252.91;4334858;32;20333;-57
2022/01/12 12:10:23;;;;;;;16.50;12.70;;;;;;;2.06;69.01;97267.94;4340162;32;20301;-59
2022/01/12 12:12:54;;;;;;;13.53;12.13;;;;;;;2.22;69.19;97266.84;4335932;32;20358;-58
2022/01/12 12:15:23;;;;;;;16.07;11.70;;;;;;;2.08;69.54;97265.13;4332152;32;20312;-58
2022/01/12 12:17:50;;;;;;;16.83;12.40;;;;;;;2.18;70.53;97272.63;4337585;32;20312;-58
2022/01/12 12:20:21;;;;;;;16.13;12.00;;;;;;;2.39;68.37;97269.94;4328680;32;20342;-58
2022/01/12 12:22:48;;;;;;;14.60;12.97;;;;;;;2.60;68.67;97269.84;4355743;32;20292;-58
2022/01/12 12:25:26;;;;;;;14.47;12.43;;;;;;;2.52;67.86;97272.63;4329842;32;20369;-58
2022/01/12 12:27:58;;;;;;;14.77;11.93;;;;;;;2.34;68.59;97283.62;4342634;32;20296;-58
2022/01/12 12:30:28;;;;;;;14.63;12.10;;;;;;;2.63;66.86;97290.44;4331805;32;27580;-57
2022/01/12 12:32:56;;;;;;;12.67;11.33;;;;;;;2.56;66.70;97291.38;4345994;32;20447;-58
2022/01/12 12:35:33;;;;;;;13.47;12.07;;;;;;;2.21;68.46;97295.81;4328165;32;20317;-59
2022/01/12 12:38:01;;;;;;;12.33;11.03;;;;;;;2.24;68.77;97301.50;4334180;32;20359;-57
2022/01/12 12:40:29;;;;;;;13.43;12.03;;;;;;;2.29;67.88;97298.28;4315974;32;20316;-59
2022/01/12 12:43:20;;;;;;;16.33;11.60;;;;;;;2.25;68.24;97303.09;4360603;32;20299;-57
2022/01/12 12:46:09;;;;;;;14.73;11.83;;;;;;;1.88;69.73;97301.59;4349910;32;20294;-57
2022/01/12 12:48:36;;;;;;;12.70;11.10;;;;;;;1.79;70.23;97297.53;4320747;32;20285;-58
2022/01/12 12:51:08;;;;;;;11.43;10.33;;;;;;;1.59;69.47;97307.81;4326974;32;20312;-57
2022/01/12 12:53:37;;;;;;;13.80;11.87;;;;;;;1.60;70.65;97308.63;4342471;32;20299;-58